NCAR-RAP Real-Time Weather Data

Output produced by METARs form (26 May 2022  08:34 UTC)
found at http://weather.rap.ucar.edu/surface/
 
WSSS 260730Z 17011KT 9999 FEW020 SCT170 BKN280 30/26 Q1007 NOSIG
WSSS 260700Z 17010KT 9999 FEW020 BKN280 30/26 Q1008 NOSIG
WSSS 260630Z 17009KT 9999 FEW020 SCT170 BKN270 30/26 Q1008 NOSIG
WSSS 260600Z 18010KT 9999 FEW020 SCT170 31/26 Q1009 NOSIG
WSSS 260530Z 17010KT 9999 FEW020 BKN170 30/25 Q1009 NOSIG
WSSS 260500Z 17009KT 9999 FEW020 SCT170 BKN280 31/26 Q1009 NOSIG
WSSS 260430Z 17009KT 9999 SCT020 BKN270 30/25 Q1010 NOSIG
WSSS 260400Z 17009KT 9999 SCT020 SCT170 BKN300 30/25 Q1010 NOSIG
WSSS 260330Z 17007KT 140V200 9999 FEW020 BKN300 30/25 Q1010 NOSIG
WSSS 260300Z 23004KT 180V290 9999 FEW018 SCT160 BKN300 31/23 Q1010 NOSIG
WSSS 260230Z 21003KT 160V280 9999 FEW018 SCT160 BKN300 30/25 Q1010 NOSIG
WSSS 260200Z VRB02KT 9999 FEW018 SCT160 BKN300 29/24 Q1010 NOSIG
WSSS 260130Z 01003KT 330V060 9999 FEW018 SCT160 BKN280 29/25 Q1010 NOSIG
WSSS 260100Z 35003KT 9999 FEW018 SCT160 BKN270 28/25 Q1010 NOSIG
WSSS 260030Z VRB02KT 9999 FEW018 SCT160 BKN270 27/24 Q1010 NOSIG
WSSS 260000Z VRB02KT 9999 FEW018 BKN160 26/24 Q1010 NOSIG
WSSS 252330Z 34002KT 9999 FEW018 BKN160 25/24 Q1009 NOSIG
WSSS 252300Z VRB01KT 9999 FEW018 BKN160 25/24 Q1009 NOSIG
WSSS 252230Z VRB02KT 9999 FEW018 BKN300 24/24 Q1008 NOSIG
WSSS 252200Z VRB01KT 9999 FEW018 BKN300 24/23 Q1009 NOSIG
WSSS 252130Z 35003KT 9999 FEW018 BKN160 24/23 Q1008 NOSIG
WSSS 252100Z VRB02KT 9999 FEW018 BKN160 24/23 Q1008 NOSIG